Time;durP1;ratioP1;P1;durP2;ratioP2;P2;SDS_P1;SDS_P2;PMS_P1;PMS_P2;Temp;Humidity;BMP_temperature;BMP_pressure;BME280_temperature;BME280_humidity;BME280_pressure;Samples;Min_cycle;Max_cycle;Signal;HPM_P1;HPM_P2
2021/01/24 00:00:26;;;;;;;20.02;13.27;;;;;;;;;;5073618;28;20479;-75
2021/01/24 00:02:52;;;;;;;27.77;16.63;;;;;;;;;;5073583;28;20037;-74
2021/01/24 00:05:17;;;;;;;26.10;15.18;;;;;;;;;;5073669;28;20105;-74
2021/01/24 00:07:43;;;;;;;29.23;17.13;;;;;;;;;;5073375;28;20036;-74
2021/01/24 00:10:12;;;;;;;23.88;14.55;;;;;;;;;;5073332;28;20033;-74
2021/01/24 00:12:37;;;;;;;21.58;13.63;;;;;;;;;;5084206;28;20032;-74
2021/01/24 00:15:03;;;;;;;19.33;13.32;;;;;;;;;;5093926;28;20127;-74
2021/01/24 00:17:29;;;;;;;19.33;13.25;;;;;;;;;;5093674;28;20043;-75
2021/01/24 00:19:54;;;;;;;24.77;13.90;;;;;;;;;;5093344;28;20390;-74
2021/01/24 00:22:19;;;;;;;20.75;12.65;;;;;;;;;;5093841;28;20044;-74
2021/01/24 00:24:45;;;;;;;22.00;14.73;;;;;;;;;;5093234;28;20077;-74
2021/01/24 00:27:10;;;;;;;22.65;14.65;;;;;;;;;;5093355;28;20355;-74
2021/01/24 00:29:35;;;;;;;21.77;13.70;;;;;;;;;;5093505;28;20067;-75
2021/01/24 00:32:00;;;;;;;21.05;12.93;;;;;;;;;;5093437;28;20032;-75
2021/01/24 00:34:26;;;;;;;19.45;13.38;;;;;;;;;;5093487;28;20067;-75
2021/01/24 00:36:51;;;;;;;17.30;11.88;;;;;;;;;;5093422;28;20046;-75
2021/01/24 00:39:17;;;;;;;19.35;11.68;;;;;;;;;;5093148;28;20032;-75
2021/01/24 00:41:42;;;;;;;26.55;16.30;;;;;;;;;;5092349;28;20028;-74
2021/01/24 00:44:07;;;;;;;19.05;13.40;;;;;;;;;;5091912;28;20240;-75
2021/01/24 00:46:33;;;;;;;21.58;14.10;;;;;;;;;;5093169;28;20098;-75
2021/01/24 00:48:58;;;;;;;22.83;13.00;;;;;;;;;;5092201;28;20032;-75
2021/01/24 00:51:23;;;;;;;22.80;13.57;;;;;;;;;;5093332;28;20501;-75
2021/01/24 00:53:51;;;;;;;18.27;13.25;;;;;;;;;;5091938;28;20064;-75
2021/01/24 00:56:16;;;;;;;20.30;11.77;;;;;;;;;;5093267;28;20044;-75
2021/01/24 00:58:42;;;;;;;16.90;12.23;;;;;;;;;;5093002;28;20043;-75
2021/01/24 01:01:07;;;;;;;15.57;10.45;;;;;;;;;;5093226;28;20028;-75
2021/01/24 01:03:33;;;;;;;13.27;9.77;;;;;;;;;;5093342;28;20469;-75
2021/01/24 01:05:58;;;;;;;16.52;10.95;;;;;;;;;;5093241;28;20087;-75
2021/01/24 01:08:23;;;;;;;13.88;10.73;;;;;;;;;;5092987;28;20032;-75
2021/01/24 01:10:49;;;;;;;14.38;9.75;;;;;;;;;;5093913;28;20397;-75
2021/01/24 01:13:14;;;;;;;22.83;10.15;;;;;;;;;;5113066;28;20032;-75
2021/01/24 01:15:39;;;;;;;16.77;11.00;;;;;;;;;;5113569;28;20570;-75
2021/01/24 01:18:05;;;;;;;15.95;11.15;;;;;;;;;;5113643;28;20036;-75
2021/01/24 01:20:30;;;;;;;17.38;11.07;;;;;;;;;;5113389;28;20439;-75
2021/01/24 01:22:56;;;;;;;11.52;8.98;;;;;;;;;;5113589;28;20421;-75
2021/01/24 01:25:22;;;;;;;12.98;9.23;;;;;;;;;;5113346;28;20081;-75
2021/01/24 01:27:48;;;;;;;13.40;8.82;;;;;;;;;;5113158;28;20130;-75
2021/01/24 01:30:13;;;;;;;16.55;9.65;;;;;;;;;;5113401;28;20124;-75
2021/01/24 01:32:39;;;;;;;11.98;9.70;;;;;;;;;;5113361;28;20031;-75
2021/01/24 01:35:05;;;;;;;13.80;9.70;;;;;;;;;;5113386;28;20050;-75
2021/01/24 01:37:31;;;;;;;11.40;8.77;;;;;;;;;;5113314;28;20375;-75
2021/01/24 01:39:56;;;;;;;12.82;9.38;;;;;;;;;;5113285;28;20043;-75
2021/01/24 01:42:22;;;;;;;12.60;9.38;;;;;;;;;;5098224;28;20036;-75
2021/01/24 01:44:47;;;;;;;13.85;8.95;;;;;;;;;;5092735;28;20032;-75
2021/01/24 01:47:23;;;;;;;11.82;8.68;;;;;;;;;;5095245;28;20031;-75
2021/01/24 01:49:58;;;;;;;13.75;9.52;;;;;;;;;;5113126;28;20439;-75
2021/01/24 01:52:28;;;;;;;19.80;12.88;;;;;;;;;;5114960;28;20042;-75
2021/01/24 01:54:54;;;;;;;20.90;13.60;;;;;;;;;;5116533;28;20069;-75
2021/01/24 01:57:21;;;;;;;19.40;12.35;;;;;;;;;;5116300;28;20469;-75
2021/01/24 01:59:46;;;;;;;19.30;11.75;;;;;;;;;;5116677;28;20050;-75
2021/01/24 02:02:34;;;;;;;16.33;11.27;;;;;;;;;;5116644;28;20533;-75
2021/01/24 02:05:12;;;;;;;16.08;10.43;;;;;;;;;;5116403;28;20158;-76
2021/01/24 02:07:54;;;;;;;14.38;10.65;;;;;;;;;;5116459;28;20036;-75
2021/01/24 02:10:23;;;;;;;18.25;10.60;;;;;;;;;;5116432;28;20077;-75
2021/01/24 02:13:11;;;;;;;15.88;10.82;;;;;;;;;;5116288;27;20046;-75
2021/01/24 02:15:40;;;;;;;14.63;9.77;;;;;;;;;;5116199;28;20473;-75
2021/01/24 02:18:07;;;;;;;14.07;9.13;;;;;;;;;;5104455;28;20060;-75
2021/01/24 02:20:45;;;;;;;16.10;10.35;;;;;;;;;;5096064;28;20032;-75
2021/01/24 02:23:12;;;;;;;17.38;10.27;;;;;;;;;;5095797;28;20170;-75
2021/01/24 02:25:46;;;;;;;11.20;8.57;;;;;;;;;;5094642;28;20032;-75
2021/01/24 02:28:29;;;;;;;12.00;8.68;;;;;;;;;;5095347;28;20036;-75
2021/01/24 02:30:56;;;;;;;13.80;9.30;;;;;;;;;;5095628;28;20097;-75
2021/01/24 02:33:24;;;;;;;14.50;9.23;;;;;;;;;;5095596;28;20046;-75
2021/01/24 02:35:53;;;;;;;14.25;9.55;;;;;;;;;;5095687;28;20047;-75
2021/01/24 02:38:19;;;;;;;14.63;9.77;;;;;;;;;;5094132;28;20024;-75
2021/01/24 02:40:46;;;;;;;12.52;8.50;;;;;;;;;;5095439;28;20039;-75
2021/01/24 02:43:13;;;;;;;13.00;9.73;;;;;;;;;;5111216;28;20111;-75
2021/01/24 02:45:42;;;;;;;16.42;11.40;;;;;;;;;;5115624;28;20051;-75
2021/01/24 02:48:08;;;;;;;18.08;12.93;;;;;;;;;;5115732;28;20130;-74
2021/01/24 02:50:35;;;;;;;17.58;13.30;;;;;;;;;;5115674;28;20368;-75
2021/01/24 02:53:01;;;;;;;17.23;13.10;;;;;;;;;;5114382;28;20038;-75
2021/01/24 02:55:27;;;;;;;17.58;13.02;;;;;;;;;;5115791;28;20032;-75
2021/01/24 02:57:54;;;;;;;29.15;14.02;;;;;;;;;;5115321;28;20038;-75
2021/01/24 03:00:20;;;;;;;17.80;13.27;;;;;;;;;;5115619;28;20027;-74
2021/01/24 03:02:45;;;;;;;21.45;14.45;;;;;;;;;;5114765;28;20039;-74
2021/01/24 03:05:12;;;;;;;20.38;14.70;;;;;;;;;;5115108;28;20034;-75
2021/01/24 03:07:37;;;;;;;19.63;13.98;;;;;;;;;;5115574;28;20181;-75
2021/01/24 03:10:04;;;;;;;20.10;14.55;;;;;;;;;;5115228;28;20111;-74
2021/01/24 03:12:35;;;;;;;19.30;13.50;;;;;;;;;;5092577;28;20047;-74
2021/01/24 03:15:02;;;;;;;23.08;15.15;;;;;;;;;;5074536;28;20044;-75
2021/01/24 03:17:29;;;;;;;17.02;12.82;;;;;;;;;;5074502;28;20025;-75
2021/01/24 03:19:56;;;;;;;22.85;14.60;;;;;;;;;;5074234;28;20199;-75
2021/01/24 03:22:22;;;;;;;17.15;12.75;;;;;;;;;;5074380;28;20041;-75
2021/01/24 03:24:49;;;;;;;17.58;12.75;;;;;;;;;;5074207;28;20047;-75
2021/01/24 03:27:15;;;;;;;24.67;14.98;;;;;;;;;;5074039;28;20087;-75
2021/01/24 03:29:40;;;;;;;19.17;13.15;;;;;;;;;;5074177;28;20075;-75
2021/01/24 03:32:05;;;;;;;22.20;13.63;;;;;;;;;;5074094;28;20040;-75
2021/01/24 03:34:31;;;;;;;20.73;13.27;;;;;;;;;;5074186;28;20032;-75
2021/01/24 03:36:59;;;;;;;17.58;13.52;;;;;;;;;;5074191;28;20390;-75
2021/01/24 03:39:25;;;;;;;18.17;12.15;;;;;;;;;;5074073;28;20557;-75
2021/01/24 03:41:50;;;;;;;19.48;13.57;;;;;;;;;;5084473;28;20114;-75
2021/01/24 03:44:16;;;;;;;17.48;12.30;;;;;;;;;;5114581;28;20045;-75
2021/01/24 03:46:41;;;;;;;17.20;12.43;;;;;;;;;;5114364;27;20463;-75
2021/01/24 03:49:07;;;;;;;18.95;14.30;;;;;;;;;;5114535;28;20071;-75
2021/01/24 03:51:33;;;;;;;18.77;13.45;;;;;;;;;;5085023;28;20028;-74
2021/01/24 03:53:59;;;;;;;21.88;14.55;;;;;;;;;;5073997;28;20033;-75
2021/01/24 03:56:24;;;;;;;18.70;14.18;;;;;;;;;;5073564;28;20081;-76
2021/01/24 03:58:49;;;;;;;19.15;13.85;;;;;;;;;;5073827;28;20543;-75
2021/01/24 04:01:15;;;;;;;21.17;14.57;;;;;;;;;;5073560;28;20508;-75
2021/01/24 04:03:41;;;;;;;22.83;14.90;;;;;;;;;;5073831;28;20063;-75
2021/01/24 04:06:06;;;;;;;19.33;14.00;;;;;;;;;;5073770;28;20048;-75
2021/01/24 04:08:32;;;;;;;22.92;14.05;;;;;;;;;;5073703;28;20149;-75
2021/01/24 04:10:57;;;;;;;21.23;13.40;;;;;;;;;;5072158;28;20052;-75
2021/01/24 04:13:23;;;;;;;21.48;14.75;;;;;;;;;;5073373;28;20040;-75
2021/01/24 04:15:49;;;;;;;18.52;13.10;;;;;;;;;;5073194;28;20040;-75
2021/01/24 04:18:14;;;;;;;20.13;14.27;;;;;;;;;;5073557;28;20040;-75
2021/01/24 04:20:40;;;;;;;19.27;13.55;;;;;;;;;;5073354;28;20040;-75
2021/01/24 04:23:05;;;;;;;19.38;14.20;;;;;;;;;;5073476;28;20047;-75
2021/01/24 04:25:31;;;;;;;19.20;13.85;;;;;;;;;;5073514;28;20040;-75
2021/01/24 04:27:56;;;;;;;19.13;13.30;;;;;;;;;;5073460;28;20033;-75
2021/01/24 04:30:22;;;;;;;19.80;14.50;;;;;;;;;;5073255;28;20028;-75
2021/01/24 04:32:47;;;;;;;19.98;13.80;;;;;;;;;;5073281;28;20032;-75
2021/01/24 04:35:12;;;;;;;17.70;13.18;;;;;;;;;;5073272;28;20041;-75
2021/01/24 04:37:38;;;;;;;22.42;15.10;;;;;;;;;;5073329;28;20032;-75
2021/01/24 04:40:04;;;;;;;18.10;13.82;;;;;;;;;;5073301;28;20033;-75
2021/01/24 04:42:29;;;;;;;22.67;14.70;;;;;;;;;;5073406;28;20043;-75
2021/01/24 04:44:56;;;;;;;20.52;14.25;;;;;;;;;;5073307;28;20045;-75
2021/01/24 04:47:22;;;;;;;20.17;14.27;;;;;;;;;;5072831;28;20056;-75
2021/01/24 04:49:48;;;;;;;20.55;13.75;;;;;;;;;;5072828;28;20051;-75
2021/01/24 04:52:14;;;;;;;18.65;13.25;;;;;;;;;;5092924;28;20042;-75
2021/01/24 04:54:41;;;;;;;22.60;13.98;;;;;;;;;;5093500;28;20032;-75
2021/01/24 04:57:08;;;;;;;18.42;13.07;;;;;;;;;;5093339;28;20044;-75
2021/01/24 04:59:34;;;;;;;18.02;12.63;;;;;;;;;;5092967;28;20086;-75
2021/01/24 05:02:00;;;;;;;22.38;14.98;;;;;;;;;;5091805;28;20537;-76
2021/01/24 05:04:26;;;;;;;19.55;14.57;;;;;;;;;;5093119;28;20032;-76
2021/01/24 05:06:51;;;;;;;21.58;15.15;;;;;;;;;;5093100;28;20119;-75
2021/01/24 05:09:19;;;;;;;24.67;14.57;;;;;;;;;;5093439;28;20077;-75
2021/01/24 05:11:51;;;;;;;20.15;14.55;;;;;;;;;;5089380;28;20068;-76
2021/01/24 05:14:19;;;;;;;17.98;13.95;;;;;;;;;;5072700;28;20024;-75
2021/01/24 05:16:47;;;;;;;23.13;14.52;;;;;;;;;;5072871;28;20036;-75
2021/01/24 05:19:13;;;;;;;20.75;14.60;;;;;;;;;;5072800;28;20040;-75
2021/01/24 05:21:39;;;;;;;19.23;13.88;;;;;;;;;;5072720;28;20028;-75
2021/01/24 05:24:12;;;;;;;19.45;14.30;;;;;;;;;;5073030;28;20086;-75
2021/01/24 05:26:41;;;;;;;21.63;13.77;;;;;;;;;;5073513;28;20079;-75
2021/01/24 05:29:27;;;;;;;20.92;16.00;;;;;;;;;;5076479;28;20572;-75
2021/01/24 05:31:53;;;;;;;21.17;15.23;;;;;;;;;;5076462;28;20478;-75
2021/01/24 05:34:26;;;;;;;18.13;14.43;;;;;;;;;;5076397;28;20033;-75
2021/01/24 05:36:52;;;;;;;20.60;14.60;;;;;;;;;;5076685;28;20032;-75
2021/01/24 05:39:18;;;;;;;20.63;14.52;;;;;;;;;;5076066;28;20040;-75
2021/01/24 05:41:51;;;;;;;26.98;16.20;;;;;;;;;;5081859;28;20458;-75
2021/01/24 05:44:18;;;;;;;22.30;14.10;;;;;;;;;;5116890;27;20059;-75
2021/01/24 05:46:44;;;;;;;20.17;14.68;;;;;;;;;;5116689;28;20066;-75
2021/01/24 05:49:19;;;;;;;20.65;14.30;;;;;;;;;;5115658;28;20073;-75
2021/01/24 05:51:58;;;;;;;20.60;14.25;;;;;;;;;;5116937;28;20039;-75
2021/01/24 05:54:36;;;;;;;18.95;14.00;;;;;;;;;;5116584;27;20132;-75
2021/01/24 05:57:01;;;;;;;22.58;14.30;;;;;;;;;;5116622;28;20602;-75
2021/01/24 05:59:26;;;;;;;22.08;15.70;;;;;;;;;;5116496;28;20122;-75
2021/01/24 06:01:52;;;;;;;24.52;14.82;;;;;;;;;;5116744;28;20059;-75
2021/01/24 06:04:17;;;;;;;18.40;13.50;;;;;;;;;;5116398;28;20031;-75
2021/01/24 06:06:43;;;;;;;18.25;13.40;;;;;;;;;;5116762;28;20043;-75
2021/01/24 06:09:08;;;;;;;20.98;15.07;;;;;;;;;;5116529;28;20032;-75
2021/01/24 06:11:35;;;;;;;18.60;13.88;;;;;;;;;;5116346;28;20055;-75
2021/01/24 06:14:02;;;;;;;19.23;14.18;;;;;;;;;;5115319;28;20074;-75
2021/01/24 06:16:32;;;;;;;20.70;14.80;;;;;;;;;;5116384;28;20056;-75
2021/01/24 06:19:03;;;;;;;19.88;13.90;;;;;;;;;;5100859;27;20078;-75
2021/01/24 06:21:42;;;;;;;20.83;15.35;;;;;;;;;;5095710;28;20032;-75
2021/01/24 06:24:18;;;;;;;19.00;14.60;;;;;;;;;;5094814;28;20424;-75
2021/01/24 06:26:48;;;;;;;21.17;14.73;;;;;;;;;;5095623;28;20462;-75
2021/01/24 06:29:15;;;;;;;26.25;15.60;;;;;;;;;;5095727;28;20055;-75
2021/01/24 06:31:48;;;;;;;22.45;15.32;;;;;;;;;;5095652;28;20040;-75
2021/01/24 06:34:14;;;;;;;19.88;14.70;;;;;;;;;;5095426;28;20552;-75
2021/01/24 06:37:05;;;;;;;20.88;14.48;;;;;;;;;;5095727;28;20036;-75
2021/01/24 06:39:31;;;;;;;22.33;14.68;;;;;;;;;;5095465;28;20040;-75
2021/01/24 06:41:57;;;;;;;19.83;14.93;;;;;;;;;;5088683;28;20365;-75
2021/01/24 06:44:37;;;;;;;20.50;15.13;;;;;;;;;;5075230;28;20035;-75
2021/01/24 06:47:04;;;;;;;22.00;15.57;;;;;;;;;;5074926;28;20044;-75
2021/01/24 06:49:43;;;;;;;19.45;14.68;;;;;;;;;;5075070;28;20032;-75
2021/01/24 06:52:18;;;;;;;23.45;16.50;;;;;;;;;;5074904;28;20389;-75
2021/01/24 06:54:43;;;;;;;20.42;13.75;;;;;;;;;;5074969;28;20425;-75
2021/01/24 06:57:10;;;;;;;20.45;15.10;;;;;;;;;;5074986;28;20098;-75
2021/01/24 06:59:35;;;;;;;20.00;14.63;;;;;;;;;;5074799;28;20068;-75
2021/01/24 07:02:35;;;;;;;21.35;14.68;;;;;;;;;;5074750;28;20067;-75
2021/01/24 07:05:17;;;;;;;21.38;14.80;;;;;;;;;;5074953;28;20033;-75
2021/01/24 07:07:46;;;;;;;19.50;14.05;;;;;;;;;;5074570;28;20101;-75
2021/01/24 07:10:33;;;;;;;19.70;13.93;;;;;;;;;;5074462;28;20037;-75
2021/01/24 07:12:59;;;;;;;22.20;15.40;;;;;;;;;;5103335;28;20035;-75
2021/01/24 07:15:24;;;;;;;23.00;15.07;;;;;;;;;;5115261;28;20577;-75
2021/01/24 07:17:58;;;;;;;34.97;23.85;;;;;;;;;;5111866;28;20407;-74
2021/01/24 07:20:23;;;;;;;56.65;32.38;;;;;;;;;;5094254;28;20055;-75
2021/01/24 07:22:49;;;;;;;104.68;56.95;;;;;;;;;;5076633;28;20044;-75
2021/01/24 07:25:17;;;;;;;188.60;100.47;;;;;;;;;;5094545;28;20040;-75
2021/01/24 07:27:42;;;;;;;177.80;96.38;;;;;;;;;;5094740;28;20115;-74
2021/01/24 07:30:09;;;;;;;130.20;70.70;;;;;;;;;;5092858;28;20504;-74
2021/01/24 07:32:39;;;;;;;108.95;59.08;;;;;;;;;;5094581;28;20039;-72
2021/01/24 07:35:05;;;;;;;72.25;41.97;;;;;;;;;;5094421;28;20036;-75
2021/01/24 07:37:30;;;;;;;47.25;29.63;;;;;;;;;;5094490;28;20020;-75
2021/01/24 07:39:55;;;;;;;41.15;23.40;;;;;;;;;;5094346;28;20520;-75
2021/01/24 07:42:21;;;;;;;36.05;22.23;;;;;;;;;;5094179;28;20481;-76
2021/01/24 07:44:46;;;;;;;31.02;21.70;;;;;;;;;;5094263;28;20032;-75
2021/01/24 07:47:13;;;;;;;34.00;22.42;;;;;;;;;;5093881;28;20056;-76
2021/01/24 07:49:39;;;;;;;32.90;22.35;;;;;;;;;;5093281;28;20032;-77
2021/01/24 07:52:05;;;;;;;29.15;20.05;;;;;;;;;;5093004;28;20032;-76
2021/01/24 07:54:32;;;;;;;28.90;20.85;;;;;;;;;;5094245;28;20394;-75
2021/01/24 07:56:57;;;;;;;29.30;20.23;;;;;;;;;;5094062;28;20043;-74
2021/01/24 07:59:24;;;;;;;25.63;18.73;;;;;;;;;;5094048;28;20028;-73
2021/01/24 08:01:51;;;;;;;27.60;17.95;;;;;;;;;;5092870;28;20414;-74
2021/01/24 08:04:17;;;;;;;24.98;16.63;;;;;;;;;;5094334;28;20032;-73
2021/01/24 08:06:42;;;;;;;20.85;15.65;;;;;;;;;;5094166;28;20101;-73
2021/01/24 08:09:09;;;;;;;20.77;15.38;;;;;;;;;;5094620;28;20489;-74
2021/01/24 08:11:35;;;;;;;21.98;15.98;;;;;;;;;;5093384;28;20041;-73
2021/01/24 08:14:02;;;;;;;21.40;15.60;;;;;;;;;;5093896;28;20032;-76
2021/01/24 08:16:41;;;;;;;20.38;14.10;;;;;;;;;;5092282;28;20036;-75
2021/01/24 08:19:11;;;;;;;19.27;14.00;;;;;;;;;;5092565;28;20046;-75
2021/01/24 08:21:38;;;;;;;19.52;13.43;;;;;;;;;;5093438;28;20072;-75
2021/01/24 08:24:05;;;;;;;20.10;13.88;;;;;;;;;;5093582;28;20420;-75
2021/01/24 08:26:31;;;;;;;17.85;13.50;;;;;;;;;;5093721;28;20090;-75
2021/01/24 08:28:56;;;;;;;18.80;13.65;;;;;;;;;;5093708;28;20032;-76
2021/01/24 08:31:22;;;;;;;17.20;13.20;;;;;;;;;;5093760;28;20495;-76
2021/01/24 08:33:52;;;;;;;17.55;13.55;;;;;;;;;;5093566;28;20587;-76
2021/01/24 08:36:20;;;;;;;28.02;19.60;;;;;;;;;;5093317;28;20043;-75
2021/01/24 08:38:46;;;;;;;25.05;18.48;;;;;;;;;;5093399;28;20115;-74
2021/01/24 08:41:13;;;;;;;21.90;15.40;;;;;;;;;;5091918;28;20028;-74
2021/01/24 08:43:39;;;;;;;22.08;15.20;;;;;;;;;;5092667;28;20043;-73
2021/01/24 08:46:24;;;;;;;19.02;13.73;;;;;;;;;;5092869;28;20043;-75
2021/01/24 08:48:59;;;;;;;16.88;12.68;;;;;;;;;;5086429;28;20033;-75
2021/01/24 08:51:36;;;;;;;16.67;12.20;;;;;;;;;;5084990;28;20085;-76
2021/01/24 08:54:21;;;;;;;17.63;12.40;;;;;;;;;;5087097;28;20505;-76
2021/01/24 08:56:48;;;;;;;16.65;11.63;;;;;;;;;;5084371;28;20061;-74
2021/01/24 08:59:21;;;;;;;16.00;12.13;;;;;;;;;;5080663;28;20040;-74
2021/01/24 09:01:48;;;;;;;16.42;12.48;;;;;;;;;;5082160;28;20088;-74
2021/01/24 09:04:25;;;;;;;15.75;11.88;;;;;;;;;;5082301;28;20777;-74
2021/01/24 09:07:01;;;;;;;15.63;11.60;;;;;;;;;;5084986;28;20081;-73
2021/01/24 09:09:27;;;;;;;14.75;11.63;;;;;;;;;;5077094;28;20047;-73
2021/01/24 09:11:53;;;;;;;14.93;11.50;;;;;;;;;;5076775;28;20036;-73
2021/01/24 09:14:18;;;;;;;15.95;11.88;;;;;;;;;;5081051;28;20032;-73
2021/01/24 09:16:44;;;;;;;20.15;14.18;;;;;;;;;;5097073;28;20051;-74
2021/01/24 09:19:09;;;;;;;22.15;14.65;;;;;;;;;;5096800;28;20040;-73
2021/01/24 09:21:34;;;;;;;25.48;16.33;;;;;;;;;;5096907;28;20065;-74
2021/01/24 09:24:00;;;;;;;26.88;17.38;;;;;;;;;;5097458;28;20036;-76
2021/01/24 09:26:25;;;;;;;24.17;16.40;;;;;;;;;;5095658;28;20028;-75
2021/01/24 09:28:50;;;;;;;25.55;16.20;;;;;;;;;;5098179;28;20048;-78
2021/01/24 09:31:16;;;;;;;21.05;15.00;;;;;;;;;;5099611;28;20096;-79
2021/01/24 09:33:41;;;;;;;18.33;13.43;;;;;;;;;;5083752;28;20047;-81
2021/01/24 09:36:06;;;;;;;16.88;12.23;;;;;;;;;;5079745;28;20047;-80
2021/01/24 09:38:33;;;;;;;25.05;16.55;;;;;;;;;;5079558;28;20040;-83
2021/01/24 09:40:58;;;;;;;25.73;18.13;;;;;;;;;;5081358;28;20040;-80
2021/01/24 09:43:23;;;;;;;26.50;16.95;;;;;;;;;;5119918;28;20164;-82
2021/01/24 09:45:49;;;;;;;35.63;21.75;;;;;;;;;;5119169;28;20133;-76
2021/01/24 09:48:16;;;;;;;29.98;19.50;;;;;;;;;;5124141;28;20111;-78
2021/01/24 09:50:41;;;;;;;22.42;16.20;;;;;;;;;;5123179;28;20059;-84
2021/01/24 09:53:06;;;;;;;19.67;12.52;;;;;;;;;;5120512;28;20032;-80
2021/01/24 09:55:32;;;;;;;18.50;11.57;;;;;;;;;;5119039;28;20039;-76
2021/01/24 09:57:57;;;;;;;15.18;10.85;;;;;;;;;;5117809;28;20031;-78
2021/01/24 10:00:23;;;;;;;12.48;9.38;;;;;;;;;;5117258;28;20031;-77
2021/01/24 10:02:48;;;;;;;13.40;9.68;;;;;;;;;;5118278;28;20088;-78
2021/01/24 10:05:13;;;;;;;11.77;8.40;;;;;;;;;;5120430;27;20036;-78
2021/01/24 10:07:40;;;;;;;11.07;8.55;;;;;;;;;;5117651;28;20034;-72
2021/01/24 10:10:06;;;;;;;13.25;9.40;;;;;;;;;;5116509;28;20477;-74
2021/01/24 10:12:32;;;;;;;11.50;8.88;;;;;;;;;;5101599;28;20042;-76
2021/01/24 10:14:57;;;;;;;15.13;10.30;;;;;;;;;;5096883;28;20040;-76
2021/01/24 10:17:23;;;;;;;14.95;10.75;;;;;;;;;;5098177;28;20047;-80
2021/01/24 10:19:48;;;;;;;14.10;10.10;;;;;;;;;;5096501;28;20115;-75
2021/01/24 10:22:13;;;;;;;13.05;9.80;;;;;;;;;;5096109;28;20028;-75
2021/01/24 10:24:39;;;;;;;11.40;9.52;;;;;;;;;;5095746;28;20488;-74
2021/01/24 10:27:04;;;;;;;10.73;8.90;;;;;;;;;;5094563;28;20119;-74
2021/01/24 10:29:30;;;;;;;10.90;8.27;;;;;;;;;;5095629;28;20077;-77
2021/01/24 10:31:55;;;;;;;10.32;7.68;;;;;;;;;;5095556;28;20505;-73
2021/01/24 10:34:20;;;;;;;11.30;8.13;;;;;;;;;;5095338;28;20046;-74
2021/01/24 10:36:46;;;;;;;10.23;7.47;;;;;;;;;;5094631;28;20489;-74
2021/01/24 10:39:11;;;;;;;10.50;7.53;;;;;;;;;;5096043;28;20047;-73
2021/01/24 10:41:36;;;;;;;9.63;6.90;;;;;;;;;;5095123;28;20035;-75
2021/01/24 10:44:02;;;;;;;11.10;7.75;;;;;;;;;;5094169;28;20031;-75
2021/01/24 10:46:28;;;;;;;9.60;6.57;;;;;;;;;;5093843;28;20071;-75
2021/01/24 10:48:53;;;;;;;8.60;6.53;;;;;;;;;;5095504;28;20065;-76
2021/01/24 10:51:18;;;;;;;8.73;6.22;;;;;;;;;;5095138;28;20077;-76
2021/01/24 10:53:44;;;;;;;9.43;7.05;;;;;;;;;;5095306;28;20085;-74
2021/01/24 10:56:09;;;;;;;8.02;6.00;;;;;;;;;;5095177;28;20032;-74
2021/01/24 10:58:34;;;;;;;8.18;6.47;;;;;;;;;;5095098;28;20048;-75
2021/01/24 11:01:00;;;;;;;8.35;6.53;;;;;;;;;;5094750;28;20036;-75
2021/01/24 11:03:25;;;;;;;8.68;6.60;;;;;;;;;;5095017;28;20036;-74
2021/01/24 11:05:51;;;;;;;8.07;5.97;;;;;;;;;;5094749;28;20507;-74
2021/01/24 11:08:16;;;;;;;7.50;5.72;;;;;;;;;;5094781;28;20073;-74
2021/01/24 11:10:41;;;;;;;11.43;6.40;;;;;;;;;;5094770;28;20469;-74
2021/01/24 11:13:07;;;;;;;10.57;7.30;;;;;;;;;;5093591;28;20043;-74
2021/01/24 11:15:32;;;;;;;9.63;6.72;;;;;;;;;;5093703;28;20081;-74
2021/01/24 11:17:58;;;;;;;15.40;9.23;;;;;;;;;;5094657;28;20047;-75
2021/01/24 11:20:23;;;;;;;22.70;12.20;;;;;;;;;;5093203;28;20068;-73
2021/01/24 11:22:48;;;;;;;31.30;16.30;;;;;;;;;;5094824;28;20493;-74
2021/01/24 11:25:14;;;;;;;43.15;22.65;;;;;;;;;;5093714;28;20075;-73
2021/01/24 11:27:39;;;;;;;20.67;13.23;;;;;;;;;;5092914;28;20077;-73
2021/01/24 11:30:09;;;;;;;18.15;12.85;;;;;;;;;;5094503;28;20035;-74
2021/01/24 11:32:34;;;;;;;19.83;14.95;;;;;;;;;;5094579;28;20032;-73
2021/01/24 11:35:00;;;;;;;21.25;16.13;;;;;;;;;;5094537;28;20050;-74
2021/01/24 11:37:25;;;;;;;19.45;15.32;;;;;;;;;;5094375;28;20047;-74
2021/01/24 11:39:51;;;;;;;14.60;11.35;;;;;;;;;;5094116;28;20036;-74
2021/01/24 11:42:16;;;;;;;17.63;13.40;;;;;;;;;;5092721;28;20119;-74
2021/01/24 11:44:48;;;;;;;11.35;8.77;;;;;;;;;;5090958;28;20356;-73
2021/01/24 11:47:14;;;;;;;9.10;7.07;;;;;;;;;;5072474;28;20504;-73
2021/01/24 11:49:39;;;;;;;8.27;6.53;;;;;;;;;;5090841;28;20020;-75
2021/01/24 11:52:04;;;;;;;8.82;7.10;;;;;;;;;;5071657;28;20052;-75
2021/01/24 11:54:30;;;;;;;7.78;6.35;;;;;;;;;;5090383;28;20040;-74
2021/01/24 11:56:55;;;;;;;6.40;5.00;;;;;;;;;;5090602;28;20493;-75
2021/01/24 11:59:20;;;;;;;7.00;5.63;;;;;;;;;;5090645;28;20047;-74
2021/01/24 12:01:46;;;;;;;6.43;5.50;;;;;;;;;;5090344;28;20113;-73
2021/01/24 12:04:11;;;;;;;8.13;6.18;;;;;;;;;;5090262;28;20035;-74
2021/01/24 12:06:37;;;;;;;7.20;6.25;;;;;;;;;;5090329;28;20048;-75
2021/01/24 12:09:02;;;;;;;6.93;5.25;;;;;;;;;;5090294;28;20078;-73
2021/01/24 12:11:28;;;;;;;7.78;6.18;;;;;;;;;;5072075;28;20119;-73
2021/01/24 12:13:53;;;;;;;7.45;6.00;;;;;;;;;;5089946;28;20056;-73
2021/01/24 12:16:18;;;;;;;9.05;7.10;;;;;;;;;;5089975;28;20039;-73
2021/01/24 12:18:44;;;;;;;7.95;6.10;;;;;;;;;;5090190;28;20077;-74
2021/01/24 12:21:09;;;;;;;7.82;6.50;;;;;;;;;;5071598;28;20485;-74
2021/01/24 12:23:34;;;;;;;8.10;6.07;;;;;;;;;;5089963;28;20518;-74
2021/01/24 12:26:00;;;;;;;13.52;9.73;;;;;;;;;;5089909;28;20142;-74
2021/01/24 12:28:25;;;;;;;11.85;8.35;;;;;;;;;;5089638;28;20036;-74
2021/01/24 12:30:51;;;;;;;11.15;7.88;;;;;;;;;;5090002;28;20042;-71
2021/01/24 12:33:16;;;;;;;9.80;6.80;;;;;;;;;;5089840;28;20059;-73
2021/01/24 12:35:41;;;;;;;10.18;7.38;;;;;;;;;;5089991;28;20115;-74
2021/01/24 12:38:07;;;;;;;8.57;6.78;;;;;;;;;;5087002;28;20060;-74
2021/01/24 12:40:33;;;;;;;9.90;7.43;;;;;;;;;;5076555;28;20036;-74
2021/01/24 12:42:58;;;;;;;9.27;7.43;;;;;;;;;;5086737;28;20045;-78
2021/01/24 12:45:24;;;;;;;9.27;7.28;;;;;;;;;;5071235;28;20090;-77
2021/01/24 12:47:49;;;;;;;9.07;7.25;;;;;;;;;;5083019;28;20059;-74
2021/01/24 12:50:16;;;;;;;8.38;6.93;;;;;;;;;;5082483;28;20040;-78
2021/01/24 12:52:41;;;;;;;9.45;7.97;;;;;;;;;;5088635;28;20036;-74
2021/01/24 12:55:07;;;;;;;9.15;7.32;;;;;;;;;;5061862;28;20040;-76
2021/01/24 12:57:32;;;;;;;11.40;8.25;;;;;;;;;;5056562;28;20509;-76
2021/01/24 12:59:58;;;;;;;11.27;9.13;;;;;;;;;;5075141;28;20032;-75
2021/01/24 13:02:23;;;;;;;11.82;9.90;;;;;;;;;;5049183;28;20540;-76
2021/01/24 13:04:48;;;;;;;12.68;9.23;;;;;;;;;;5059666;28;20128;-77
2021/01/24 13:07:14;;;;;;;10.93;8.55;;;;;;;;;;5060554;28;20056;-74
2021/01/24 13:09:40;;;;;;;12.00;8.75;;;;;;;;;;5061126;28;20119;-77
2021/01/24 13:12:06;;;;;;;12.38;9.38;;;;;;;;;;5065948;28;20084;-76
2021/01/24 13:14:31;;;;;;;12.85;8.75;;;;;;;;;;5056898;28;20033;-73
2021/01/24 13:16:58;;;;;;;11.80;9.32;;;;;;;;;;5074995;28;20039;-76
2021/01/24 13:19:23;;;;;;;12.48;8.88;;;;;;;;;;5057044;28;20033;-76
2021/01/24 13:21:48;;;;;;;11.90;9.27;;;;;;;;;;5060762;28;20067;-74
2021/01/24 13:24:14;;;;;;;12.40;9.50;;;;;;;;;;5058316;28;20036;-72
2021/01/24 13:26:39;;;;;;;13.05;10.00;;;;;;;;;;5071880;28;20098;-71
2021/01/24 13:29:04;;;;;;;12.23;9.43;;;;;;;;;;5075257;28;20040;-72
2021/01/24 13:31:30;;;;;;;16.80;11.43;;;;;;;;;;5074998;28;20067;-73
2021/01/24 13:33:55;;;;;;;15.48;11.30;;;;;;;;;;5075353;28;20047;-73
2021/01/24 13:36:20;;;;;;;13.95;10.40;;;;;;;;;;5074493;28;20047;-73
2021/01/24 13:38:46;;;;;;;16.83;11.80;;;;;;;;;;5074982;28;20123;-73
2021/01/24 13:41:11;;;;;;;15.32;11.35;;;;;;;;;;5075080;28;20036;-73
2021/01/24 13:43:36;;;;;;;15.90;12.32;;;;;;;;;;5073688;28;20044;-73
2021/01/24 13:46:02;;;;;;;17.90;14.05;;;;;;;;;;5074908;28;20028;-73
2021/01/24 13:48:27;;;;;;;15.85;12.23;;;;;;;;;;5074931;28;20028;-73
2021/01/24 13:50:54;;;;;;;18.48;13.85;;;;;;;;;;5067192;28;20061;-72
2021/01/24 13:53:20;;;;;;;28.27;21.88;;;;;;;;;;5066238;28;20040;-73
2021/01/24 13:55:45;;;;;;;33.67;26.67;;;;;;;;;;5028794;28;20033;-73
2021/01/24 13:58:11;;;;;;;26.65;20.85;;;;;;;;;;5056618;28;20071;-74
2021/01/24 14:00:37;;;;;;;15.77;12.75;;;;;;;;;;5062613;28;20107;-74
2021/01/24 14:03:04;;;;;;;16.92;13.02;;;;;;;;;;5069811;28;20489;-73
2021/01/24 14:05:29;;;;;;;17.58;13.00;;;;;;;;;;5068114;28;20040;-73
2021/01/24 14:07:54;;;;;;;15.25;12.23;;;;;;;;;;5062934;28;20047;-74
2021/01/24 14:10:20;;;;;;;17.98;11.32;;;;;;;;;;5060614;28;20083;-73
2021/01/24 14:12:45;;;;;;;16.13;12.55;;;;;;;;;;5062032;28;20074;-73
2021/01/24 14:15:11;;;;;;;17.50;12.02;;;;;;;;;;5055773;28;20036;-74
2021/01/24 14:17:36;;;;;;;17.60;12.60;;;;;;;;;;5053738;28;20079;-73
2021/01/24 14:20:03;;;;;;;19.15;14.10;;;;;;;;;;5054079;28;20450;-73